sensor_id;sensor_type;location;lat;lon;timestamp;P1;durP1;ratioP1;P2;durP2;ratioP2
26620;SDS011;14253;44.840;10.444;2024-03-23T00:53:50;20.15;;;12.50;;
26620;SDS011;14253;44.840;10.444;2024-03-23T00:56:16;20.65;;;12.48;;
26620;SDS011;14253;44.840;10.444;2024-03-23T00:58:42;26.75;;;12.63;;
26620;SDS011;14253;44.840;10.444;2024-03-23T01:01:08;20.25;;;12.43;;
26620;SDS011;14253;44.840;10.444;2024-03-23T01:03:34;17.35;;;12.50;;
26620;SDS011;14253;44.840;10.444;2024-03-23T01:06:00;22.23;;;11.85;;
26620;SDS011;14253;44.840;10.444;2024-03-23T01:08:26;19.67;;;12.75;;
26620;SDS011;14253;44.840;10.444;2024-03-23T01:10:56;19.13;;;11.82;;
26620;SDS011;14253;44.840;10.444;2024-03-23T01:13:23;19.70;;;11.63;;
26620;SDS011;14253;44.840;10.444;2024-03-23T01:15:49;19.63;;;12.38;;
26620;SDS011;14253;44.840;10.444;2024-03-23T01:18:17;16.52;;;11.75;;
26620;SDS011;14253;44.840;10.444;2024-03-23T01:20:43;17.42;;;12.27;;
26620;SDS011;14253;44.840;10.444;2024-03-23T01:23:09;22.00;;;12.57;;
26620;SDS011;14253;44.840;10.444;2024-03-23T01:25:35;18.70;;;12.32;;
26620;SDS011;14253;44.840;10.444;2024-03-23T01:28:01;17.23;;;11.80;;
26620;SDS011;14253;44.840;10.444;2024-03-23T01:30:27;20.55;;;12.35;;
26620;SDS011;14253;44.840;10.444;2024-03-23T01:32:53;18.05;;;11.80;;
26620;SDS011;14253;44.840;10.444;2024-03-23T01:35:19;20.20;;;11.75;;
26620;SDS011;14253;44.840;10.444;2024-03-23T01:37:45;18.45;;;11.90;;
26620;SDS011;14253;44.840;10.444;2024-03-23T01:40:11;21.15;;;12.13;;
26620;SDS011;14253;44.840;10.444;2024-03-23T01:42:40;18.40;;;11.55;;
26620;SDS011;14253;44.840;10.444;2024-03-23T01:45:07;17.40;;;11.82;;
26620;SDS011;14253;44.840;10.444;2024-03-23T01:47:34;17.15;;;12.07;;
26620;SDS011;14253;44.840;10.444;2024-03-23T01:50:00;18.63;;;11.88;;
26620;SDS011;14253;44.840;10.444;2024-03-23T01:52:29;17.52;;;11.82;;
26620;SDS011;14253;44.840;10.444;2024-03-23T01:54:55;19.83;;;12.20;;
26620;SDS011;14253;44.840;10.444;2024-03-23T01:57:21;19.00;;;11.27;;
26620;SDS011;14253;44.840;10.444;2024-03-23T01:59:47;19.13;;;12.40;;
26620;SDS011;14253;44.840;10.444;2024-03-23T02:02:22;19.27;;;12.27;;
26620;SDS011;14253;44.840;10.444;2024-03-23T02:04:48;19.95;;;12.32;;
26620;SDS011;14253;44.840;10.444;2024-03-23T02:07:14;16.10;;;11.43;;
26620;SDS011;14253;44.840;10.444;2024-03-23T02:09:40;20.15;;;11.27;;
26620;SDS011;14253;44.840;10.444;2024-03-23T02:12:06;17.27;;;11.30;;
26620;SDS011;14253;44.840;10.444;2024-03-23T02:14:32;18.33;;;11.77;;
26620;SDS011;14253;44.840;10.444;2024-03-23T02:16:58;21.20;;;11.98;;
26620;SDS011;14253;44.840;10.444;2024-03-23T02:19:24;16.77;;;11.52;;
26620;SDS011;14253;44.840;10.444;2024-03-23T02:21:50;17.65;;;11.82;;
26620;SDS011;14253;44.840;10.444;2024-03-23T02:24:16;17.20;;;11.55;;
26620;SDS011;14253;44.840;10.444;2024-03-23T02:26:42;15.10;;;11.07;;
26620;SDS011;14253;44.840;10.444;2024-03-23T02:29:07;18.65;;;11.95;;
26620;SDS011;14253;44.840;10.444;2024-03-23T02:31:34;18.70;;;12.43;;
26620;SDS011;14253;44.840;10.444;2024-03-23T02:34:01;19.17;;;12.70;;
26620;SDS011;14253;44.840;10.444;2024-03-23T02:36:27;20.50;;;12.52;;
26620;SDS011;14253;44.840;10.444;2024-03-23T02:38:53;23.45;;;14.18;;
26620;SDS011;14253;44.840;10.444;2024-03-23T02:41:19;23.55;;;12.98;;
26620;SDS011;14253;44.840;10.444;2024-03-23T02:43:48;21.35;;;12.70;;
26620;SDS011;14253;44.840;10.444;2024-03-23T02:46:15;20.50;;;12.73;;
26620;SDS011;14253;44.840;10.444;2024-03-23T02:48:41;23.80;;;12.55;;
26620;SDS011;14253;44.840;10.444;2024-03-23T02:51:07;19.05;;;13.45;;
26620;SDS011;14253;44.840;10.444;2024-03-23T02:53:33;23.70;;;13.23;;
26620;SDS011;14253;44.840;10.444;2024-03-23T02:55:59;20.80;;;13.55;;
26620;SDS011;14253;44.840;10.444;2024-03-23T02:58:24;17.77;;;11.63;;
26620;SDS011;14253;44.840;10.444;2024-03-23T03:00:50;18.33;;;12.40;;
26620;SDS011;14253;44.840;10.444;2024-03-23T03:03:16;20.65;;;12.60;;
26620;SDS011;14253;44.840;10.444;2024-03-23T03:05:42;23.13;;;13.90;;
26620;SDS011;14253;44.840;10.444;2024-03-23T03:08:08;19.80;;;13.00;;
26620;SDS011;14253;44.840;10.444;2024-03-23T03:10:34;28.10;;;13.93;;
26620;SDS011;14253;44.840;10.444;2024-03-23T03:13:01;17.30;;;12.10;;
26620;SDS011;14253;44.840;10.444;2024-03-23T03:15:27;18.92;;;12.60;;
26620;SDS011;14253;44.840;10.444;2024-03-23T03:17:53;17.88;;;12.80;;
26620;SDS011;14253;44.840;10.444;2024-03-23T03:20:19;23.98;;;13.93;;
26620;SDS011;14253;44.840;10.444;2024-03-23T03:22:47;21.42;;;11.50;;
26620;SDS011;14253;44.840;10.444;2024-03-23T03:25:13;20.38;;;13.00;;
26620;SDS011;14253;44.840;10.444;2024-03-23T03:27:39;19.02;;;11.93;;
26620;SDS011;14253;44.840;10.444;2024-03-23T03:30:05;20.98;;;13.25;;
26620;SDS011;14253;44.840;10.444;2024-03-23T03:32:33;24.27;;;13.80;;
26620;SDS011;14253;44.840;10.444;2024-03-23T03:34:58;19.30;;;13.25;;
26620;SDS011;14253;44.840;10.444;2024-03-23T03:37:24;20.77;;;12.45;;
26620;SDS011;14253;44.840;10.444;2024-03-23T03:39:50;20.60;;;12.05;;
26620;SDS011;14253;44.840;10.444;2024-03-23T03:42:16;19.33;;;12.43;;
26620;SDS011;14253;44.840;10.444;2024-03-23T03:44:42;20.27;;;12.32;;
26620;SDS011;14253;44.840;10.444;2024-03-23T03:47:08;20.52;;;12.13;;
26620;SDS011;14253;44.840;10.444;2024-03-23T03:49:34;18.38;;;12.05;;
26620;SDS011;14253;44.840;10.444;2024-03-23T03:52:00;20.48;;;12.80;;
26620;SDS011;14253;44.840;10.444;2024-03-23T03:54:27;23.85;;;13.57;;
26620;SDS011;14253;44.840;10.444;2024-03-23T03:56:53;25.98;;;15.48;;
26620;SDS011;14253;44.840;10.444;2024-03-23T03:59:19;22.20;;;14.20;;
26620;SDS011;14253;44.840;10.444;2024-03-23T04:01:45;24.00;;;14.98;;
26620;SDS011;14253;44.840;10.444;2024-03-23T04:04:11;25.55;;;14.88;;
26620;SDS011;14253;44.840;10.444;2024-03-23T04:06:39;25.30;;;15.63;;
26620;SDS011;14253;44.840;10.444;2024-03-23T04:09:05;28.88;;;15.75;;
26620;SDS011;14253;44.840;10.444;2024-03-23T04:11:31;24.23;;;14.55;;
26620;SDS011;14253;44.840;10.444;2024-03-23T04:13:57;19.48;;;13.35;;
26620;SDS011;14253;44.840;10.444;2024-03-23T04:16:27;16.25;;;11.63;;
26620;SDS011;14253;44.840;10.444;2024-03-23T04:18:54;25.58;;;12.00;;
26620;SDS011;14253;44.840;10.444;2024-03-23T04:21:21;16.67;;;11.55;;
26620;SDS011;14253;44.840;10.444;2024-03-23T04:23:48;26.95;;;12.43;;
26620;SDS011;14253;44.840;10.444;2024-03-23T04:26:14;24.23;;;12.93;;
26620;SDS011;14253;44.840;10.444;2024-03-23T04:28:40;17.65;;;11.90;;
26620;SDS011;14253;44.840;10.444;2024-03-23T04:31:06;20.73;;;11.23;;
26620;SDS011;14253;44.840;10.444;2024-03-23T04:33:32;17.77;;;11.95;;
26620;SDS011;14253;44.840;10.444;2024-03-23T04:35:58;22.48;;;12.85;;
26620;SDS011;14253;44.840;10.444;2024-03-23T04:38:24;23.55;;;13.45;;
26620;SDS011;14253;44.840;10.444;2024-03-23T04:40:56;23.50;;;14.30;;
26620;SDS011;14253;44.840;10.444;2024-03-23T04:43:23;23.10;;;13.82;;
26620;SDS011;14253;44.840;10.444;2024-03-23T04:45:50;20.67;;;13.63;;
26620;SDS011;14253;44.840;10.444;2024-03-23T04:48:16;18.75;;;12.88;;
26620;SDS011;14253;44.840;10.444;2024-03-23T04:50:44;23.35;;;13.90;;
26620;SDS011;14253;44.840;10.444;2024-03-23T04:53:11;24.80;;;13.18;;
26620;SDS011;14253;44.840;10.444;2024-03-23T04:55:37;21.40;;;13.75;;
26620;SDS011;14253;44.840;10.444;2024-03-23T04:58:03;21.75;;;12.98;;
26620;SDS011;14253;44.840;10.444;2024-03-23T05:00:29;20.98;;;12.68;;
26620;SDS011;14253;44.840;10.444;2024-03-23T05:02:55;22.45;;;13.27;;
26620;SDS011;14253;44.840;10.444;2024-03-23T05:05:21;20.42;;;12.95;;
26620;SDS011;14253;44.840;10.444;2024-03-23T05:07:46;21.92;;;13.40;;
26620;SDS011;14253;44.840;10.444;2024-03-23T05:10:12;19.75;;;13.63;;
26620;SDS011;14253;44.840;10.444;2024-03-23T05:12:38;20.48;;;12.90;;
26620;SDS011;14253;44.840;10.444;2024-03-23T05:15:05;23.95;;;14.90;;
26620;SDS011;14253;44.840;10.444;2024-03-23T05:17:32;25.08;;;14.02;;
26620;SDS011;14253;44.840;10.444;2024-03-23T05:19:59;23.60;;;15.38;;
26620;SDS011;14253;44.840;10.444;2024-03-23T05:22:25;22.30;;;14.20;;
26620;SDS011;14253;44.840;10.444;2024-03-23T05:24:52;28.35;;;15.68;;
26620;SDS011;14253;44.840;10.444;2024-03-23T05:27:18;22.23;;;14.38;;
26620;SDS011;14253;44.840;10.444;2024-03-23T05:29:44;29.42;;;15.25;;
26620;SDS011;14253;44.840;10.444;2024-03-23T05:32:11;22.63;;;14.27;;
26620;SDS011;14253;44.840;10.444;2024-03-23T05:34:36;18.92;;;13.45;;
26620;SDS011;14253;44.840;10.444;2024-03-23T05:37:02;25.25;;;15.30;;
26620;SDS011;14253;44.840;10.444;2024-03-23T05:39:28;22.00;;;13.85;;
26620;SDS011;14253;44.840;10.444;2024-03-23T05:41:54;22.90;;;14.48;;
26620;SDS011;14253;44.840;10.444;2024-03-23T05:44:20;24.73;;;14.85;;
26620;SDS011;14253;44.840;10.444;2024-03-23T05:46:46;20.65;;;11.82;;
26620;SDS011;14253;44.840;10.444;2024-03-23T05:49:13;18.25;;;11.30;;
26620;SDS011;14253;44.840;10.444;2024-03-23T05:51:41;20.67;;;12.10;;
26620;SDS011;14253;44.840;10.444;2024-03-23T05:54:06;21.85;;;12.82;;
26620;SDS011;14253;44.840;10.444;2024-03-23T05:56:32;22.20;;;13.43;;
26620;SDS011;14253;44.840;10.444;2024-03-23T05:58:58;20.40;;;12.40;;
26620;SDS011;14253;44.840;10.444;2024-03-23T06:01:24;16.55;;;10.32;;
26620;SDS011;14253;44.840;10.444;2024-03-23T06:03:54;18.00;;;9.88;;
26620;SDS011;14253;44.840;10.444;2024-03-23T06:06:20;14.13;;;9.55;;
26620;SDS011;14253;44.840;10.444;2024-03-23T06:08:45;12.82;;;8.50;;
26620;SDS011;14253;44.840;10.444;2024-03-23T06:11:11;19.33;;;9.75;;
26620;SDS011;14253;44.840;10.444;2024-03-23T06:13:37;15.98;;;10.25;;
26620;SDS011;14253;44.840;10.444;2024-03-23T06:16:03;12.95;;;9.48;;
26620;SDS011;14253;44.840;10.444;2024-03-23T06:18:29;13.85;;;9.57;;
26620;SDS011;14253;44.840;10.444;2024-03-23T06:20:55;16.20;;;10.05;;
26620;SDS011;14253;44.840;10.444;2024-03-23T06:23:21;13.48;;;9.38;;
26620;SDS011;14253;44.840;10.444;2024-03-23T06:25:47;11.60;;;9.02;;
26620;SDS011;14253;44.840;10.444;2024-03-23T06:28:13;12.98;;;8.82;;
26620;SDS011;14253;44.840;10.444;2024-03-23T06:30:39;15.75;;;10.07;;
26620;SDS011;14253;44.840;10.444;2024-03-23T06:33:05;15.68;;;9.15;;
26620;SDS011;14253;44.840;10.444;2024-03-23T06:35:31;15.85;;;9.18;;
26620;SDS011;14253;44.840;10.444;2024-03-23T06:37:57;15.80;;;9.82;;
26620;SDS011;14253;44.840;10.444;2024-03-23T06:40:23;12.88;;;9.82;;
26620;SDS011;14253;44.840;10.444;2024-03-23T06:42:49;15.73;;;10.05;;
26620;SDS011;14253;44.840;10.444;2024-03-23T06:45:16;16.90;;;9.23;;
26620;SDS011;14253;44.840;10.444;2024-03-23T06:47:42;12.75;;;9.32;;
26620;SDS011;14253;44.840;10.444;2024-03-23T06:50:08;11.52;;;8.57;;
26620;SDS011;14253;44.840;10.444;2024-03-23T06:52:35;17.70;;;10.43;;
26620;SDS011;14253;44.840;10.444;2024-03-23T06:55:01;17.70;;;10.30;;
26620;SDS011;14253;44.840;10.444;2024-03-23T06:57:29;17.00;;;10.50;;
26620;SDS011;14253;44.840;10.444;2024-03-23T06:59:55;22.52;;;12.85;;
26620;SDS011;14253;44.840;10.444;2024-03-23T07:02:21;23.20;;;14.10;;
26620;SDS011;14253;44.840;10.444;2024-03-23T07:04:47;38.72;;;24.30;;
26620;SDS011;14253;44.840;10.444;2024-03-23T07:07:13;40.28;;;23.05;;
26620;SDS011;14253;44.840;10.444;2024-03-23T07:09:39;38.92;;;26.30;;
26620;SDS011;14253;44.840;10.444;2024-03-23T07:12:05;43.63;;;28.85;;
26620;SDS011;14253;44.840;10.444;2024-03-23T07:14:31;46.08;;;29.77;;
26620;SDS011;14253;44.840;10.444;2024-03-23T07:16:57;43.22;;;28.20;;
26620;SDS011;14253;44.840;10.444;2024-03-23T07:19:23;46.78;;;29.17;;
26620;SDS011;14253;44.840;10.444;2024-03-23T07:21:49;27.58;;;16.30;;
26620;SDS011;14253;44.840;10.444;2024-03-23T07:24:15;22.45;;;14.65;;
26620;SDS011;14253;44.840;10.444;2024-03-23T07:26:41;21.83;;;13.57;;
26620;SDS011;14253;44.840;10.444;2024-03-23T07:29:07;18.95;;;12.60;;
26620;SDS011;14253;44.840;10.444;2024-03-23T07:31:33;19.23;;;12.32;;
26620;SDS011;14253;44.840;10.444;2024-03-23T07:33:59;19.77;;;12.93;;
26620;SDS011;14253;44.840;10.444;2024-03-23T07:36:25;18.05;;;11.85;;
26620;SDS011;14253;44.840;10.444;2024-03-23T07:38:51;19.42;;;13.00;;
26620;SDS011;14253;44.840;10.444;2024-03-23T07:41:17;21.70;;;12.63;;
26620;SDS011;14253;44.840;10.444;2024-03-23T07:43:44;20.45;;;13.13;;
26620;SDS011;14253;44.840;10.444;2024-03-23T07:46:11;23.98;;;15.93;;
26620;SDS011;14253;44.840;10.444;2024-03-23T07:48:38;26.90;;;16.98;;
26620;SDS011;14253;44.840;10.444;2024-03-23T07:51:07;24.33;;;16.60;;
26620;SDS011;14253;44.840;10.444;2024-03-23T07:53:35;27.45;;;17.83;;
26620;SDS011;14253;44.840;10.444;2024-03-23T07:56:05;31.38;;;17.25;;
26620;SDS011;14253;44.840;10.444;2024-03-23T07:58:32;31.60;;;19.92;;
26620;SDS011;14253;44.840;10.444;2024-03-23T08:01:05;33.90;;;20.98;;
26620;SDS011;14253;44.840;10.444;2024-03-23T08:03:33;39.97;;;24.35;;
26620;SDS011;14253;44.840;10.444;2024-03-23T08:06:09;36.20;;;24.35;;
26620;SDS011;14253;44.840;10.444;2024-03-23T08:08:45;36.22;;;23.00;;
26620;SDS011;14253;44.840;10.444;2024-03-23T08:11:11;36.17;;;22.75;;
26620;SDS011;14253;44.840;10.444;2024-03-23T08:13:38;36.20;;;23.63;;
26620;SDS011;14253;44.840;10.444;2024-03-23T08:16:06;34.45;;;22.08;;
26620;SDS011;14253;44.840;10.444;2024-03-23T08:18:32;37.67;;;23.27;;
26620;SDS011;14253;44.840;10.444;2024-03-23T08:20:59;34.35;;;21.40;;
26620;SDS011;14253;44.840;10.444;2024-03-23T08:23:29;32.58;;;18.58;;
26620;SDS011;14253;44.840;10.444;2024-03-23T08:26:02;31.98;;;20.33;;
26620;SDS011;14253;44.840;10.444;2024-03-23T08:28:29;28.13;;;18.63;;
26620;SDS011;14253;44.840;10.444;2024-03-23T08:38:01;26.70;;;17.67;;
26620;SDS011;14253;44.840;10.444;2024-03-23T08:40:27;24.05;;;16.20;;
26620;SDS011;14253;44.840;10.444;2024-03-23T08:42:52;25.85;;;16.95;;
26620;SDS011;14253;44.840;10.444;2024-03-23T08:45:18;22.48;;;15.43;;
26620;SDS011;14253;44.840;10.444;2024-03-23T08:47:44;22.83;;;16.60;;
26620;SDS011;14253;44.840;10.444;2024-03-23T08:50:10;23.17;;;15.88;;
26620;SDS011;14253;44.840;10.444;2024-03-23T08:52:36;24.08;;;16.60;;
26620;SDS011;14253;44.840;10.444;2024-03-23T08:55:02;16.48;;;11.57;;
26620;SDS011;14253;44.840;10.444;2024-03-23T08:57:32;10.88;;;8.05;;
26620;SDS011;14253;44.840;10.444;2024-03-23T08:59:58;10.63;;;7.90;;
26620;SDS011;14253;44.840;10.444;2024-03-23T09:02:23;17.38;;;10.85;;
26620;SDS011;14253;44.840;10.444;2024-03-23T09:04:49;17.20;;;12.52;;
26620;SDS011;14253;44.840;10.444;2024-03-23T09:07:15;20.75;;;13.15;;
26620;SDS011;14253;44.840;10.444;2024-03-23T09:09:41;21.00;;;13.63;;
26620;SDS011;14253;44.840;10.444;2024-03-23T09:12:07;18.98;;;13.60;;
26620;SDS011;14253;44.840;10.444;2024-03-23T09:14:33;21.45;;;14.95;;
26620;SDS011;14253;44.840;10.444;2024-03-23T09:16:59;23.58;;;13.73;;
26620;SDS011;14253;44.840;10.444;2024-03-23T09:19:28;19.67;;;13.45;;
26620;SDS011;14253;44.840;10.444;2024-03-23T09:21:55;21.98;;;13.55;;
26620;SDS011;14253;44.840;10.444;2024-03-23T09:24:21;18.10;;;11.98;;
26620;SDS011;14253;44.840;10.444;2024-03-23T09:26:47;23.05;;;15.50;;
26620;SDS011;14253;44.840;10.444;2024-03-23T09:29:13;26.10;;;15.77;;
26620;SDS011;14253;44.840;10.444;2024-03-23T09:31:39;22.85;;;14.00;;
26620;SDS011;14253;44.840;10.444;2024-03-23T09:34:06;22.00;;;15.40;;
26620;SDS011;14253;44.840;10.444;2024-03-23T09:36:32;21.88;;;15.75;;
26620;SDS011;14253;44.840;10.444;2024-03-23T09:38:57;24.48;;;16.52;;
26620;SDS011;14253;44.840;10.444;2024-03-23T09:41:23;26.45;;;17.38;;
26620;SDS011;14253;44.840;10.444;2024-03-23T09:43:52;27.08;;;16.60;;
26620;SDS011;14253;44.840;10.444;2024-03-23T09:46:18;25.48;;;16.52;;
26620;SDS011;14253;44.840;10.444;2024-03-23T09:48:45;28.65;;;17.77;;
26620;SDS011;14253;44.840;10.444;2024-03-23T09:51:12;28.25;;;19.10;;
26620;SDS011;14253;44.840;10.444;2024-03-23T09:53:38;28.83;;;19.92;;
26620;SDS011;14253;44.840;10.444;2024-03-23T09:56:04;31.95;;;20.98;;
26620;SDS011;14253;44.840;10.444;2024-03-23T09:58:30;30.02;;;21.90;;
26620;SDS011;14253;44.840;10.444;2024-03-23T10:00:59;40.20;;;21.35;;
26620;SDS011;14253;44.840;10.444;2024-03-23T10:03:25;35.70;;;23.38;;
26620;SDS011;14253;44.840;10.444;2024-03-23T10:06:01;31.80;;;22.85;;
26620;SDS011;14253;44.840;10.444;2024-03-23T10:08:28;33.17;;;22.58;;
26620;SDS011;14253;44.840;10.444;2024-03-23T10:10:55;37.08;;;23.75;;
26620;SDS011;14253;44.840;10.444;2024-03-23T10:13:27;36.97;;;23.80;;
26620;SDS011;14253;44.840;10.444;2024-03-23T10:15:58;42.20;;;25.63;;
26620;SDS011;14253;44.840;10.444;2024-03-23T10:18:25;41.13;;;25.00;;
26620;SDS011;14253;44.840;10.444;2024-03-23T10:23:34;43.33;;;28.20;;
26620;SDS011;14253;44.840;10.444;2024-03-23T10:26:20;48.53;;;29.55;;
26620;SDS011;14253;44.840;10.444;2024-03-23T10:28:51;48.92;;;28.42;;
26620;SDS011;14253;44.840;10.444;2024-03-23T10:31:27;47.42;;;28.73;;
26620;SDS011;14253;44.840;10.444;2024-03-23T10:33:54;45.45;;;27.90;;
26620;SDS011;14253;44.840;10.444;2024-03-23T10:36:20;47.22;;;28.85;;
26620;SDS011;14253;44.840;10.444;2024-03-23T10:38:51;52.47;;;28.10;;
26620;SDS011;14253;44.840;10.444;2024-03-23T10:41:18;47.80;;;28.30;;
26620;SDS011;14253;44.840;10.444;2024-03-23T10:43:47;48.83;;;29.27;;
26620;SDS011;14253;44.840;10.444;2024-03-23T10:46:14;44.92;;;28.80;;
26620;SDS011;14253;44.840;10.444;2024-03-23T10:48:41;43.45;;;27.08;;
26620;SDS011;14253;44.840;10.444;2024-03-23T10:51:08;43.72;;;26.65;;
26620;SDS011;14253;44.840;10.444;2024-03-23T10:53:35;42.92;;;27.85;;
26620;SDS011;14253;44.840;10.444;2024-03-23T10:56:05;37.42;;;23.25;;
26620;SDS011;14253;44.840;10.444;2024-03-23T10:58:36;38.22;;;23.75;;
26620;SDS011;14253;44.840;10.444;2024-03-23T11:01:06;37.95;;;22.92;;
26620;SDS011;14253;44.840;10.444;2024-03-23T11:03:33;40.70;;;23.50;;
26620;SDS011;14253;44.840;10.444;2024-03-23T11:06:06;38.88;;;22.73;;
26620;SDS011;14253;44.840;10.444;2024-03-23T11:08:34;38.67;;;25.63;;
26620;SDS011;14253;44.840;10.444;2024-03-23T11:11:20;34.45;;;23.40;;
26620;SDS011;14253;44.840;10.444;2024-03-23T11:13:48;36.47;;;22.13;;
26620;SDS011;14253;44.840;10.444;2024-03-23T11:16:15;28.45;;;19.15;;
26620;SDS011;14253;44.840;10.444;2024-03-23T11:18:43;29.98;;;21.25;;
26620;SDS011;14253;44.840;10.444;2024-03-23T11:21:10;33.85;;;21.85;;
26620;SDS011;14253;44.840;10.444;2024-03-23T11:23:36;32.42;;;20.48;;
26620;SDS011;14253;44.840;10.444;2024-03-23T11:26:02;34.70;;;21.42;;
26620;SDS011;14253;44.840;10.444;2024-03-23T11:28:32;31.73;;;19.13;;
26620;SDS011;14253;44.840;10.444;2024-03-23T11:30:58;30.88;;;18.70;;
26620;SDS011;14253;44.840;10.444;2024-03-23T11:33:24;31.08;;;19.77;;
26620;SDS011;14253;44.840;10.444;2024-03-23T11:35:50;34.85;;;21.35;;
26620;SDS011;14253;44.840;10.444;2024-03-23T11:38:17;33.22;;;20.45;;
26620;SDS011;14253;44.840;10.444;2024-03-23T11:40:45;32.88;;;20.10;;
26620;SDS011;14253;44.840;10.444;2024-03-23T11:43:13;28.15;;;18.00;;
26620;SDS011;14253;44.840;10.444;2024-03-23T11:45:42;25.27;;;16.75;;
26620;SDS011;14253;44.840;10.444;2024-03-23T11:48:15;31.55;;;19.05;;
26620;SDS011;14253;44.840;10.444;2024-03-23T11:50:44;27.90;;;17.48;;
26620;SDS011;14253;44.840;10.444;2024-03-23T11:58:18;12.88;;;2.33;;
26620;SDS011;14253;44.840;10.444;2024-03-23T12:03:25;5.28;;;2.65;;
26620;SDS011;14253;44.840;10.444;2024-03-23T12:05:57;16.23;;;3.15;;
26620;SDS011;14253;44.840;10.444;2024-03-23T12:08:31;6.93;;;2.50;;
26620;SDS011;14253;44.840;10.444;2024-03-23T12:11:31;6.15;;;1.90;;
26620;SDS011;14253;44.840;10.444;2024-03-23T12:13:51;5.07;;;2.58;;
26620;SDS011;14253;44.840;10.444;2024-03-23T12:16:18;4.05;;;2.10;;
26620;SDS011;14253;44.840;10.444;2024-03-23T12:18:46;9.20;;;2.42;;
26620;SDS011;14253;44.840;10.444;2024-03-23T12:21:13;5.55;;;2.28;;
26620;SDS011;14253;44.840;10.444;2024-03-23T12:23:39;10.07;;;2.58;;
26620;SDS011;14253;44.840;10.444;2024-03-23T12:26:06;5.78;;;2.05;;
26620;SDS011;14253;44.840;10.444;2024-03-23T12:28:32;7.38;;;2.80;;
26620;SDS011;14253;44.840;10.444;2024-03-23T12:31:04;5.53;;;2.17;;
26620;SDS011;14253;44.840;10.444;2024-03-23T12:33:33;4.75;;;2.10;;
26620;SDS011;14253;44.840;10.444;2024-03-23T12:36:03;5.20;;;2.00;;
26620;SDS011;14253;44.840;10.444;2024-03-23T12:38:32;6.20;;;2.55;;
26620;SDS011;14253;44.840;10.444;2024-03-23T12:40:58;6.18;;;2.35;;
26620;SDS011;14253;44.840;10.444;2024-03-23T12:43:25;3.55;;;2.15;;
26620;SDS011;14253;44.840;10.444;2024-03-23T12:45:51;5.65;;;2.50;;
26620;SDS011;14253;44.840;10.444;2024-03-23T12:48:17;5.25;;;1.95;;
26620;SDS011;14253;44.840;10.444;2024-03-23T12:50:43;3.75;;;1.70;;
26620;SDS011;14253;44.840;10.444;2024-03-23T12:53:09;5.70;;;1.60;;
26620;SDS011;14253;44.840;10.444;2024-03-23T12:55:35;3.67;;;2.10;;
26620;SDS011;14253;44.840;10.444;2024-03-23T12:58:01;10.05;;;2.20;;
26620;SDS011;14253;44.840;10.444;2024-03-23T13:00:27;3.83;;;1.60;;
26620;SDS011;14253;44.840;10.444;2024-03-23T13:02:53;10.77;;;1.73;;
26620;SDS011;14253;44.840;10.444;2024-03-23T13:05:19;7.57;;;1.63;;
26620;SDS011;14253;44.840;10.444;2024-03-23T13:07:44;7.93;;;1.77;;
26620;SDS011;14253;44.840;10.444;2024-03-23T13:10:10;5.55;;;1.30;;
26620;SDS011;14253;44.840;10.444;2024-03-23T13:12:36;3.75;;;1.40;;
26620;SDS011;14253;44.840;10.444;2024-03-23T13:15:02;3.75;;;1.50;;
26620;SDS011;14253;44.840;10.444;2024-03-23T13:17:28;5.07;;;1.10;;
26620;SDS011;14253;44.840;10.444;2024-03-23T13:19:54;4.43;;;1.48;;
26620;SDS011;14253;44.840;10.444;2024-03-23T13:22:21;3.88;;;1.50;;
26620;SDS011;14253;44.840;10.444;2024-03-23T13:24:47;3.20;;;1.23;;
26620;SDS011;14253;44.840;10.444;2024-03-23T13:27:13;4.85;;;1.67;;
26620;SDS011;14253;44.840;10.444;2024-03-23T13:29:39;3.60;;;1.30;;
26620;SDS011;14253;44.840;10.444;2024-03-23T13:32:06;4.90;;;1.30;;
26620;SDS011;14253;44.840;10.444;2024-03-23T13:34:32;4.50;;;1.30;;
26620;SDS011;14253;44.840;10.444;2024-03-23T13:37:01;5.35;;;1.50;;
26620;SDS011;14253;44.840;10.444;2024-03-23T13:39:27;3.42;;;1.33;;
26620;SDS011;14253;44.840;10.444;2024-03-23T13:41:53;3.88;;;1.02;;
26620;SDS011;14253;44.840;10.444;2024-03-23T13:44:22;3.42;;;1.15;;
26620;SDS011;14253;44.840;10.444;2024-03-23T13:46:48;5.95;;;1.70;;
26620;SDS011;14253;44.840;10.444;2024-03-23T13:49:24;4.43;;;1.00;;
26620;SDS011;14253;44.840;10.444;2024-03-23T13:51:52;4.22;;;1.23;;
26620;SDS011;14253;44.840;10.444;2024-03-23T13:54:19;6.22;;;1.10;;
26620;SDS011;14253;44.840;10.444;2024-03-23T13:56:48;6.05;;;1.40;;
26620;SDS011;14253;44.840;10.444;2024-03-23T13:59:14;2.30;;;1.00;;
26620;SDS011;14253;44.840;10.444;2024-03-23T14:01:40;8.65;;;1.35;;
26620;SDS011;14253;44.840;10.444;2024-03-23T14:04:07;7.40;;;1.40;;
26620;SDS011;14253;44.840;10.444;2024-03-23T14:06:35;5.85;;;1.33;;
26620;SDS011;14253;44.840;10.444;2024-03-23T14:09:05;12.43;;;1.60;;
26620;SDS011;14253;44.840;10.444;2024-03-23T14:11:36;15.10;;;1.90;;
26620;SDS011;14253;44.840;10.444;2024-03-23T14:14:13;6.18;;;1.48;;
26620;SDS011;14253;44.840;10.444;2024-03-23T14:16:42;7.95;;;1.73;;
26620;SDS011;14253;44.840;10.444;2024-03-23T14:19:08;11.90;;;1.67;;
26620;SDS011;14253;44.840;10.444;2024-03-23T14:21:34;6.60;;;1.40;;
26620;SDS011;14253;44.840;10.444;2024-03-23T14:24:00;11.20;;;1.75;;
26620;SDS011;14253;44.840;10.444;2024-03-23T14:26:27;11.15;;;1.77;;
26620;SDS011;14253;44.840;10.444;2024-03-23T14:28:53;4.55;;;1.33;;
26620;SDS011;14253;44.840;10.444;2024-03-23T14:31:19;5.18;;;1.50;;
26620;SDS011;14253;44.840;10.444;2024-03-23T14:33:45;5.50;;;1.40;;
26620;SDS011;14253;44.840;10.444;2024-03-23T14:36:15;10.35;;;2.80;;
26620;SDS011;14253;44.840;10.444;2024-03-23T14:38:42;6.60;;;1.73;;
26620;SDS011;14253;44.840;10.444;2024-03-23T14:41:17;7.82;;;1.27;;
26620;SDS011;14253;44.840;10.444;2024-03-23T14:43:43;9.32;;;2.15;;
26620;SDS011;14253;44.840;10.444;2024-03-23T14:46:15;6.30;;;1.60;;
26620;SDS011;14253;44.840;10.444;2024-03-23T14:48:42;5.17;;;1.63;;
26620;SDS011;14253;44.840;10.444;2024-03-23T14:51:09;13.55;;;2.13;;
26620;SDS011;14253;44.840;10.444;2024-03-23T14:53:36;5.05;;;1.70;;
26620;SDS011;14253;44.840;10.444;2024-03-23T14:56:05;9.82;;;2.08;;
26620;SDS011;14253;44.840;10.444;2024-03-23T14:58:32;8.95;;;1.60;;
26620;SDS011;14253;44.840;10.444;2024-03-23T15:01:05;5.28;;;1.45;;
26620;SDS011;14253;44.840;10.444;2024-03-23T15:03:40;5.97;;;1.63;;
26620;SDS011;14253;44.840;10.444;2024-03-23T15:06:08;9.38;;;1.63;;
26620;SDS011;14253;44.840;10.444;2024-03-23T15:08:37;3.65;;;1.25;;
26620;SDS011;14253;44.840;10.444;2024-03-23T15:11:03;5.75;;;1.38;;
26620;SDS011;14253;44.840;10.444;2024-03-23T15:13:33;4.97;;;1.20;;
26620;SDS011;14253;44.840;10.444;2024-03-23T15:15:59;5.68;;;1.67;;
26620;SDS011;14253;44.840;10.444;2024-03-23T15:18:25;9.27;;;1.60;;
26620;SDS011;14253;44.840;10.444;2024-03-23T15:20:55;2.60;;;1.08;;
26620;SDS011;14253;44.840;10.444;2024-03-23T15:23:22;4.88;;;1.33;;
26620;SDS011;14253;44.840;10.444;2024-03-23T15:25:54;6.18;;;1.42;;